Česky Dansk Deutsch English Español Suomi Français Magyar Italiano Nederlands norsk Polski Português svenska Türkçe

 

Het Weer

Bulawayo Airport (Zimbabwe)

18:00, 13 augustus 2016 (GMT)

NWNNE
WE
SWSSE
Home            
Bulawayo Airport Gweru Francistown Gokwe Hwange National Park Masvingo Selebi Phikwe Sua-Pan Beitbridge Binga Buffalo Range Letlhakane Harare Kutsaga Victoria Falls Karoi Livingstone Choma Kariba Rusape Chipinge Ellisras Pietersburg Kasane

Om een weerknop op uw website of weblog te plaatsen, copieer onderstaande code en plak die in uw pagina. In het eerste vakje staat HTML-code, in het tweede vakje UBB-code.


Add to Google

Details

Visibility:Greater than 10000 m, 10 km, 32800 ft, 6.2 miles
Clouds:CAVOC
Temperature:16°C, 61°F
Dew-point:-3°C, 27°F
Atmospheric pressure:1021 hPa, 765.8 mmHg, 30.15 inHg, 1.008 atm
Relative humidity:26.9 %
METAR:FVBU 131800Z 00000KT CAVOK 16/M03 Q1021 NOSIG

Snelkoppelingen

Actuele weersinformatie van de hele wereld. Voeg locaties toe met het plus (+) symbool. Deze snelkoppelingen kunnen worden toegevoegd aan Google.

Lid van de Technetium groep

website free tracking
StatCounter NetStat W3C Validator

21-10-2020 12:51:38
astro.technetium.be money.technetium.be phote.technetium.be tafeltennistafel.technetium.be www.ligfiets.net